< Cyclone 198009 1980 Season Cyclone 198011 >
Cyclone 198010 (ENID)
General InformationTrack Information on Google MapsDetailed Wind Information || ResourceGoogle EarthGE AnimationAtom FeedGeoJSON
Detalied Best Track (Time Zone = UTC)
Year Month Day Hour Lat. Long. Pressure (hPa) Wind (kt) Class Image Chart
1980 2 12 00 -16.2 130.9 1001 25 2 -- --
1980 2 12 06 -15.9 130.7 1001 25 2 -- --
1980 2 12 12 -15.5 130.3 1001 25 2 -- --
1980 2 12 18 -15.3 129.8 1000 25 2 -- --
1980 2 13 00 -15.3 129.2 1000 25 2 -- --
1980 2 13 06 -15.8 128.5 999 25 2 -- --
1980 2 13 12 -16.2 127.8 998 25 2 -- --
1980 2 13 18 -16.5 127.2 997 25 2 -- --
1980 2 14 00 -16.7 126.3 996 25 2 -- --
1980 2 14 06 -16.8 125.5 995 25 2 -- --
1980 2 14 12 -16.9 124.5 993 30 2 -- --
1980 2 14 18 -17.1 123.2 992 30 2 -- --
1980 2 15 00 -17.3 122.1 990 40 3 -- --
1980 2 15 06 -17.8 121.2 985 45 3 -- --
1980 2 15 12 -17.7 120.6 979 55 4 -- --
1980 2 15 15 -17.6 120.3 976 60 4 -- --
1980 2 15 18 -17.5 120.4 973 65 5 -- --
1980 2 15 21 -17.6 120.8 969 75 5 -- --
1980 2 16 00 -17.8 120.6 965 80 5 -- --
1980 2 16 06 -18.2 120.5 957 85 5 -- --
1980 2 16 12 -18.6 120.4 950 90 5 -- --
1980 2 16 18 -19.0 120.4 943 100 5 -- --
1980 2 17 00 -19.4 120.4 930 110 5 -- --
1980 2 17 06 -20.2 120.3 940 95 5 -- --
1980 2 17 12 -21.0 120.1 955 70 5 -- --
1980 2 17 18 -21.7 119.9 975 45 3 -- --
1980 2 18 00 -22.5 119.8 990 35 3 -- --
< Cyclone 198009 1980 Season Cyclone 198011 >

Help